Time;durP1;ratioP1;P1;durP2;ratioP2;P2;SDS_P1;SDS_P2;PMS_P1;PMS_P2;Temp;Humidity;BMP_temperature;BMP_pressure;BME280_temperature;BME280_humidity;BME280_pressure;Samples;Min_cycle;Max_cycle;Signal;HPM_P1;HPM_P2
2023/07/02 00:00:06;;;;;;;21.70;8.18;;;;;;;;;;5034841;28;20063;-59
2023/07/02 00:02:34;;;;;;;22.45;7.85;;;;;;;;;;5038992;28;20037;-59
2023/07/02 00:05:01;;;;;;;29.20;8.53;;;;;;;;;;5030938;28;20090;-60
2023/07/02 00:07:29;;;;;;;26.05;7.95;;;;;;;;;;5026783;28;20131;-60
2023/07/02 00:09:57;;;;;;;25.15;8.15;;;;;;;;;;5020392;28;20041;-60
2023/07/02 00:12:26;;;;;;;28.67;7.93;;;;;;;;;;5029517;28;20041;-60
2023/07/02 00:14:54;;;;;;;25.33;8.77;;;;;;;;;;5032177;28;20041;-59
2023/07/02 00:17:22;;;;;;;24.20;7.23;;;;;;;;;;5028386;28;20048;-60
2023/07/02 00:19:51;;;;;;;24.38;7.32;;;;;;;;;;5030310;28;20091;-59
2023/07/02 00:22:20;;;;;;;28.10;8.38;;;;;;;;;;5033853;28;20527;-58
2023/07/02 00:24:48;;;;;;;26.83;7.15;;;;;;;;;;5026084;28;20490;-60
2023/07/02 00:27:15;;;;;;;24.55;7.60;;;;;;;;;;5025939;28;20041;-60
2023/07/02 00:29:44;;;;;;;21.43;7.10;;;;;;;;;;5030620;28;20037;-59
2023/07/02 00:32:12;;;;;;;24.33;8.10;;;;;;;;;;5030572;28;20074;-60
2023/07/02 00:34:43;;;;;;;25.75;7.82;;;;;;;;;;5033299;28;20049;-60
2023/07/02 00:37:11;;;;;;;24.13;7.93;;;;;;;;;;5028749;28;20049;-61
2023/07/02 00:39:38;;;;;;;27.08;6.75;;;;;;;;;;5028492;28;20048;-57
2023/07/02 00:42:06;;;;;;;28.80;7.67;;;;;;;;;;5043465;28;20045;-62
2023/07/02 00:44:40;;;;;;;26.92;8.32;;;;;;;;;;5022465;28;20051;-60
2023/07/02 00:47:09;;;;;;;22.45;7.15;;;;;;;;;;5043888;28;20574;-60
2023/07/02 00:49:37;;;;;;;18.90;6.65;;;;;;;;;;5028668;28;20051;-60
2023/07/02 00:52:05;;;;;;;24.88;7.00;;;;;;;;;;5035275;28;20064;-61
2023/07/02 00:54:33;;;;;;;25.17;7.23;;;;;;;;;;5029021;28;20499;-60
2023/07/02 00:57:02;;;;;;;22.30;7.57;;;;;;;;;;5031972;28;20403;-60
2023/07/02 00:59:30;;;;;;;23.58;7.40;;;;;;;;;;5035962;28;20044;-60
2023/07/02 01:01:58;;;;;;;24.80;7.57;;;;;;;;;;5031058;28;20037;-60
2023/07/02 01:04:27;;;;;;;22.67;8.23;;;;;;;;;;5030151;28;20041;-60
2023/07/02 01:06:57;;;;;;;22.33;7.53;;;;;;;;;;5046159;28;20040;-60
2023/07/02 01:09:26;;;;;;;21.60;6.82;;;;;;;;;;5025980;28;20482;-60
2023/07/02 01:11:55;;;;;;;24.27;7.13;;;;;;;;;;5019191;28;20032;-60
2023/07/02 01:14:25;;;;;;;23.38;7.40;;;;;;;;;;5033798;28;20064;-60
2023/07/02 01:16:53;;;;;;;22.92;7.88;;;;;;;;;;5024747;28;20067;-60
2023/07/02 01:19:22;;;;;;;24.60;7.57;;;;;;;;;;5045947;28;20055;-60
2023/07/02 01:21:52;;;;;;;23.10;7.35;;;;;;;;;;5004625;28;24502;-60
2023/07/02 01:24:21;;;;;;;27.23;8.13;;;;;;;;;;5034944;28;20041;-60
2023/07/02 01:26:49;;;;;;;26.85;7.60;;;;;;;;;;5025650;28;20044;-60
2023/07/02 01:29:17;;;;;;;24.20;7.80;;;;;;;;;;5042738;28;20032;-60
2023/07/02 01:31:45;;;;;;;20.17;7.20;;;;;;;;;;5008914;28;20499;-60
2023/07/02 01:34:13;;;;;;;26.13;7.85;;;;;;;;;;5030703;28;20075;-61
2023/07/02 01:36:41;;;;;;;28.13;7.80;;;;;;;;;;5034286;28;20905;-60
2023/07/02 01:39:10;;;;;;;20.77;6.90;;;;;;;;;;5037359;28;20032;-60
2023/07/02 01:41:42;;;;;;;24.75;6.90;;;;;;;;;;5029584;28;20040;-60
2023/07/02 01:44:10;;;;;;;25.63;7.67;;;;;;;;;;5003874;28;20496;-60
2023/07/02 01:46:38;;;;;;;23.65;6.82;;;;;;;;;;5026443;28;20063;-60
2023/07/02 01:49:06;;;;;;;25.15;7.85;;;;;;;;;;5054262;28;20052;-60
2023/07/02 01:51:33;;;;;;;22.33;7.72;;;;;;;;;;5027930;28;20509;-60
2023/07/02 01:54:02;;;;;;;24.52;7.68;;;;;;;;;;5032526;28;20051;-60
2023/07/02 01:56:32;;;;;;;27.33;7.47;;;;;;;;;;5036845;28;20205;-60
2023/07/02 01:59:00;;;;;;;20.20;6.30;;;;;;;;;;5017294;28;20068;-60
2023/07/02 02:01:28;;;;;;;22.70;7.63;;;;;;;;;;5032547;28;20041;-60
2023/07/02 02:03:56;;;;;;;24.23;7.05;;;;;;;;;;5027820;28;20036;-60
2023/07/02 02:06:23;;;;;;;24.88;7.65;;;;;;;;;;5046166;28;20044;-60
2023/07/02 02:08:51;;;;;;;27.13;7.17;;;;;;;;;;5029395;28;21493;-60
2023/07/02 02:11:19;;;;;;;29.30;7.85;;;;;;;;;;5032230;28;20055;-59
2023/07/02 02:13:50;;;;;;;25.38;7.30;;;;;;;;;;5036858;28;20049;-60
2023/07/02 02:16:18;;;;;;;19.42;7.22;;;;;;;;;;5041323;28;20519;-60
2023/07/02 02:18:46;;;;;;;24.80;7.53;;;;;;;;;;5030804;28;20047;-60
2023/07/02 02:21:15;;;;;;;30.00;7.60;;;;;;;;;;5035851;28;20048;-60
2023/07/02 02:23:42;;;;;;;26.52;7.15;;;;;;;;;;5035894;28;20040;-60
2023/07/02 02:26:11;;;;;;;25.17;7.00;;;;;;;;;;5020417;28;20613;-60
2023/07/02 02:28:38;;;;;;;28.50;7.43;;;;;;;;;;5033944;28;20133;-58
2023/07/02 02:31:07;;;;;;;24.15;7.78;;;;;;;;;;5028562;28;20037;-60
2023/07/02 02:33:36;;;;;;;20.77;7.23;;;;;;;;;;5027171;28;20063;-60
2023/07/02 02:36:04;;;;;;;29.50;7.75;;;;;;;;;;5028518;28;20123;-60
2023/07/02 02:38:33;;;;;;;29.52;7.47;;;;;;;;;;5028051;28;20043;-60
2023/07/02 02:41:02;;;;;;;25.20;7.63;;;;;;;;;;5029255;28;20171;-60
2023/07/02 02:43:30;;;;;;;26.17;7.20;;;;;;;;;;5045555;28;20040;-60
2023/07/02 02:46:02;;;;;;;24.43;7.47;;;;;;;;;;5013123;28;20418;-60
2023/07/02 02:48:31;;;;;;;22.75;7.07;;;;;;;;;;5029443;28;20041;-61
2023/07/02 02:50:59;;;;;;;23.73;7.05;;;;;;;;;;5031896;28;20589;-60
2023/07/02 02:53:27;;;;;;;25.05;7.32;;;;;;;;;;5031965;28;20045;-60
2023/07/02 02:55:55;;;;;;;22.60;7.55;;;;;;;;;;5030362;28;20067;-60
2023/07/02 02:58:23;;;;;;;20.40;7.70;;;;;;;;;;5040343;28;20058;-60
2023/07/02 03:00:51;;;;;;;24.48;7.80;;;;;;;;;;5006561;28;20072;-60
2023/07/02 03:03:20;;;;;;;22.33;7.55;;;;;;;;;;5030112;28;20392;-59
2023/07/02 03:05:49;;;;;;;24.13;7.05;;;;;;;;;;5011217;28;20102;-59
2023/07/02 03:08:17;;;;;;;31.38;7.03;;;;;;;;;;5039141;28;20056;-60
2023/07/02 03:10:45;;;;;;;20.67;6.33;;;;;;;;;;5025613;28;20041;-59
2023/07/02 03:13:13;;;;;;;22.60;7.65;;;;;;;;;;5046264;28;20123;-60
2023/07/02 03:15:41;;;;;;;22.35;7.53;;;;;;;;;;5026598;28;20317;-60
2023/07/02 03:18:08;;;;;;;25.88;7.50;;;;;;;;;;5030938;28;20042;-60
2023/07/02 03:20:36;;;;;;;23.63;7.15;;;;;;;;;;5024734;28;20060;-59
2023/07/02 03:23:05;;;;;;;23.33;6.60;;;;;;;;;;5027110;28;20033;-59
2023/07/02 03:25:33;;;;;;;23.25;6.53;;;;;;;;;;5032897;28;20041;-59
2023/07/02 03:28:01;;;;;;;24.08;7.00;;;;;;;;;;5033487;28;20044;-60
2023/07/02 03:30:28;;;;;;;27.20;7.60;;;;;;;;;;5030399;28;20418;-59
2023/07/02 03:32:56;;;;;;;22.92;6.20;;;;;;;;;;5028446;28;20047;-60
2023/07/02 03:35:24;;;;;;;24.47;7.40;;;;;;;;;;5042596;28;20037;-59
2023/07/02 03:37:52;;;;;;;25.58;7.40;;;;;;;;;;5034544;28;20051;-59
2023/07/02 03:40:21;;;;;;;28.90;7.20;;;;;;;;;;5039572;28;20037;-58
2023/07/02 03:42:49;;;;;;;24.00;6.18;;;;;;;;;;5025434;28;20037;-60
2023/07/02 03:45:17;;;;;;;23.88;7.38;;;;;;;;;;5025317;28;20135;-59
2023/07/02 03:47:45;;;;;;;24.50;6.60;;;;;;;;;;5031380;28;20422;-59
2023/07/02 03:50:12;;;;;;;18.52;6.93;;;;;;;;;;5039533;28;20458;-60
2023/07/02 03:52:40;;;;;;;26.00;7.38;;;;;;;;;;5030091;28;20044;-59
2023/07/02 03:55:11;;;;;;;22.10;7.93;;;;;;;;;;5007495;28;20045;-60
2023/07/02 03:57:40;;;;;;;26.63;7.78;;;;;;;;;;5025981;28;20491;-59
2023/07/02 04:00:11;;;;;;;23.33;7.40;;;;;;;;;;5020255;28;20152;-59
2023/07/02 04:02:38;;;;;;;24.15;6.97;;;;;;;;;;5031699;28;20055;-62
2023/07/02 04:05:09;;;;;;;21.15;7.55;;;;;;;;;;5041020;28;20102;-60
2023/07/02 04:07:39;;;;;;;28.80;9.18;;;;;;;;;;5039086;28;20068;-58
2023/07/02 04:10:07;;;;;;;27.13;7.78;;;;;;;;;;5030036;28;20059;-60
2023/07/02 04:12:35;;;;;;;26.27;7.83;;;;;;;;;;5031976;28;20036;-59
2023/07/02 04:15:05;;;;;;;24.58;7.38;;;;;;;;;;5029034;28;20495;-60
2023/07/02 04:17:33;;;;;;;22.73;7.50;;;;;;;;;;5027744;28;20036;-59
2023/07/02 04:20:01;;;;;;;27.15;8.23;;;;;;;;;;5047514;28;20111;-59
2023/07/02 04:22:33;;;;;;;24.13;7.07;;;;;;;;;;5033816;28;20473;-60
2023/07/02 04:25:02;;;;;;;22.43;7.10;;;;;;;;;;5020275;28;20040;-60
2023/07/02 04:27:42;;;;;;;25.35;7.60;;;;;;;;;;5032203;28;20037;-60
2023/07/02 04:30:19;;;;;;;24.25;7.07;;;;;;;;;;5010554;28;20041;-60
2023/07/02 04:32:47;;;;;;;22.73;6.75;;;;;;;;;;5033517;28;20041;-60
2023/07/02 04:35:15;;;;;;;22.27;7.20;;;;;;;;;;5038411;28;20475;-60
2023/07/02 04:37:45;;;;;;;27.90;7.60;;;;;;;;;;5045516;28;20044;-60
2023/07/02 04:40:13;;;;;;;20.85;6.95;;;;;;;;;;5044952;28;20063;-60
2023/07/02 04:42:46;;;;;;;28.08;6.45;;;;;;;;;;5027279;28;20502;-60
2023/07/02 04:45:15;;;;;;;24.80;6.82;;;;;;;;;;5044996;28;20040;-61
2023/07/02 04:47:46;;;;;;;24.38;6.53;;;;;;;;;;5045668;28;20028;-60
2023/07/02 04:50:14;;;;;;;21.40;6.20;;;;;;;;;;5027784;28;20044;-60
2023/07/02 04:52:42;;;;;;;22.83;6.55;;;;;;;;;;5040323;28;20041;-60
2023/07/02 04:55:10;;;;;;;24.33;6.93;;;;;;;;;;5027179;28;20051;-61
2023/07/02 04:57:38;;;;;;;19.90;6.38;;;;;;;;;;5044578;28;20036;-59
2023/07/02 05:00:07;;;;;;;23.90;6.13;;;;;;;;;;5034411;28;20049;-60
2023/07/02 05:02:35;;;;;;;21.50;5.63;;;;;;;;;;5035845;28;20418;-60
2023/07/02 05:05:04;;;;;;;23.58;6.03;;;;;;;;;;5032899;28;20033;-60
2023/07/02 05:07:33;;;;;;;22.38;6.15;;;;;;;;;;5034289;28;20055;-60
2023/07/02 05:10:00;;;;;;;22.75;6.85;;;;;;;;;;5024090;28;20056;-60
2023/07/02 05:12:28;;;;;;;21.88;5.88;;;;;;;;;;5028405;28;20056;-60
2023/07/02 05:14:56;;;;;;;20.20;6.47;;;;;;;;;;5022086;28;20398;-60
2023/07/02 05:17:24;;;;;;;17.30;6.28;;;;;;;;;;5050081;28;20453;-60
2023/07/02 05:19:51;;;;;;;22.02;6.70;;;;;;;;;;5031326;28;20102;-60
2023/07/02 05:22:21;;;;;;;23.52;6.72;;;;;;;;;;5026900;28;20072;-60
2023/07/02 05:24:49;;;;;;;20.90;6.45;;;;;;;;;;5028060;28;20049;-60
2023/07/02 05:27:17;;;;;;;20.60;5.70;;;;;;;;;;5034591;28;20040;-60
2023/07/02 05:29:45;;;;;;;19.13;5.22;;;;;;;;;;5025481;28;20361;-63
2023/07/02 05:32:12;;;;;;;19.08;6.05;;;;;;;;;;5030916;28;20032;-60
2023/07/02 05:34:40;;;;;;;21.85;5.70;;;;;;;;;;5019423;28;20043;-58
2023/07/02 05:37:08;;;;;;;26.00;6.38;;;;;;;;;;5015584;28;20530;-60
2023/07/02 05:39:37;;;;;;;20.30;5.87;;;;;;;;;;5026847;28;20056;-59
2023/07/02 05:42:04;;;;;;;15.45;5.45;;;;;;;;;;5026065;28;20037;-60
2023/07/02 05:44:33;;;;;;;19.02;6.45;;;;;;;;;;5033722;28;20667;-59
2023/07/02 05:47:00;;;;;;;21.88;6.75;;;;;;;;;;5020517;28;20269;-60
2023/07/02 05:49:28;;;;;;;24.08;5.47;;;;;;;;;;5028726;28;20037;-59
2023/07/02 05:51:56;;;;;;;19.50;5.37;;;;;;;;;;5027340;28;20098;-60
2023/07/02 05:54:24;;;;;;;24.20;6.70;;;;;;;;;;5037047;28;20094;-60
2023/07/02 05:56:53;;;;;;;20.30;5.43;;;;;;;;;;5035315;28;20045;-60
2023/07/02 05:59:21;;;;;;;20.30;5.45;;;;;;;;;;5044165;28;20494;-60
2023/07/02 06:01:49;;;;;;;18.92;4.90;;;;;;;;;;5037118;28;20048;-60
2023/07/02 06:04:17;;;;;;;21.00;5.17;;;;;;;;;;5025057;28;20044;-60
2023/07/02 06:06:44;;;;;;;21.65;5.60;;;;;;;;;;5025927;28;20041;-60
2023/07/02 06:09:12;;;;;;;18.80;5.88;;;;;;;;;;5040823;28;20526;-60
2023/07/02 06:11:40;;;;;;;18.90;4.82;;;;;;;;;;5019129;28;22356;-59
2023/07/02 06:14:09;;;;;;;23.92;5.40;;;;;;;;;;5037860;28;20052;-60
2023/07/02 06:16:36;;;;;;;18.90;4.83;;;;;;;;;;5012376;28;20639;-60
2023/07/02 06:19:04;;;;;;;18.40;5.38;;;;;;;;;;5037853;28;20139;-60
2023/07/02 06:21:32;;;;;;;18.60;5.35;;;;;;;;;;5029620;28;20969;-60
2023/07/02 06:24:01;;;;;;;18.83;4.03;;;;;;;;;;5034996;28;20128;-61
2023/07/02 06:26:29;;;;;;;15.45;4.30;;;;;;;;;;5028465;28;20036;-61
2023/07/02 06:28:58;;;;;;;19.10;4.13;;;;;;;;;;5048986;28;20051;-61
2023/07/02 06:31:27;;;;;;;16.75;4.72;;;;;;;;;;5017092;28;20484;-61
2023/07/02 06:33:55;;;;;;;15.73;4.22;;;;;;;;;;5032098;28;20037;-61
2023/07/02 06:36:23;;;;;;;18.38;4.72;;;;;;;;;;5032649;28;20820;-61
2023/07/02 06:38:51;;;;;;;14.07;4.43;;;;;;;;;;5041416;28;20048;-61
2023/07/02 06:41:18;;;;;;;16.73;4.13;;;;;;;;;;5032457;28;20366;-61
2023/07/02 06:43:46;;;;;;;15.90;4.40;;;;;;;;;;5038840;28;20105;-61
2023/07/02 06:46:14;;;;;;;19.10;4.90;;;;;;;;;;5037018;28;20047;-61
2023/07/02 06:48:43;;;;;;;17.33;4.82;;;;;;;;;;5050661;28;20040;-61
2023/07/02 06:51:14;;;;;;;16.42;4.20;;;;;;;;;;5022108;28;20479;-59
2023/07/02 06:53:42;;;;;;;17.47;4.67;;;;;;;;;;5026457;28;20045;-59
2023/07/02 06:56:10;;;;;;;18.52;4.78;;;;;;;;;;5017028;28;20033;-59
2023/07/02 06:58:37;;;;;;;16.02;4.72;;;;;;;;;;5034238;28;20037;-60
2023/07/02 07:01:05;;;;;;;19.30;4.03;;;;;;;;;;5031635;28;20044;-60
2023/07/02 07:03:33;;;;;;;16.55;5.10;;;;;;;;;;5035463;28;20038;-60
2023/07/02 07:06:02;;;;;;;15.27;3.83;;;;;;;;;;5034430;28;20522;-59
2023/07/02 07:08:29;;;;;;;14.77;4.15;;;;;;;;;;5025271;28;20485;-59
2023/07/02 07:10:57;;;;;;;14.00;3.92;;;;;;;;;;5031088;28;20056;-59
2023/07/02 07:13:25;;;;;;;18.10;4.25;;;;;;;;;;5021846;28;20052;-59
2023/07/02 07:15:52;;;;;;;15.50;4.20;;;;;;;;;;5033843;28;20505;-59
2023/07/02 07:18:21;;;;;;;26.97;5.00;;;;;;;;;;5031268;28;20125;-59
2023/07/02 07:20:49;;;;;;;17.55;4.10;;;;;;;;;;5040382;28;20055;-61
2023/07/02 07:23:18;;;;;;;14.55;4.32;;;;;;;;;;5019236;28;20062;-60
2023/07/02 07:25:47;;;;;;;18.88;4.10;;;;;;;;;;5045963;28;20036;-60
2023/07/02 07:28:16;;;;;;;21.55;4.47;;;;;;;;;;5024015;28;20037;-61
2023/07/02 07:30:44;;;;;;;13.93;4.10;;;;;;;;;;5010704;28;20416;-61
2023/07/02 07:33:12;;;;;;;14.63;3.58;;;;;;;;;;5031524;28;21035;-61
2023/07/02 07:35:40;;;;;;;17.33;3.80;;;;;;;;;;5035166;28;20776;-62
2023/07/02 07:38:08;;;;;;;15.57;3.72;;;;;;;;;;5037324;28;20040;-63
2023/07/02 07:40:38;;;;;;;19.42;4.57;;;;;;;;;;5043602;28;20041;-62
2023/07/02 07:43:05;;;;;;;15.27;4.37;;;;;;;;;;5019890;28;20681;-60
2023/07/02 07:45:34;;;;;;;17.48;4.30;;;;;;;;;;5034487;28;20510;-60
2023/07/02 07:48:02;;;;;;;15.43;3.60;;;;;;;;;;5020627;28;20642;-63
2023/07/02 07:50:30;;;;;;;13.25;3.45;;;;;;;;;;5038082;28;20071;-60
2023/07/02 07:52:58;;;;;;;15.05;4.18;;;;;;;;;;5039344;28;20044;-62
2023/07/02 07:55:26;;;;;;;11.70;3.57;;;;;;;;;;5028706;28;20032;-62
2023/07/02 07:57:55;;;;;;;13.73;3.40;;;;;;;;;;5048029;28;20048;-61
2023/07/02 08:00:24;;;;;;;12.98;3.53;;;;;;;;;;5033216;28;20139;-61
2023/07/02 08:02:55;;;;;;;9.48;3.17;;;;;;;;;;5017417;28;20043;-61
2023/07/02 08:05:24;;;;;;;17.10;4.57;;;;;;;;;;5032039;28;20102;-61
2023/07/02 08:07:53;;;;;;;10.30;3.57;;;;;;;;;;5023834;28;20474;-61
2023/07/02 08:10:27;;;;;;;11.65;3.13;;;;;;;;;;4840563;28;10001019;-61
2023/07/02 08:12:59;;;;;;;11.18;4.18;;;;;;;;;;5054138;28;20239;-61
2023/07/02 08:15:26;;;;;;;14.60;4.10;;;;;;;;;;5039147;28;20044;-61
2023/07/02 08:17:57;;;;;;;13.88;3.33;;;;;;;;;;5030188;28;20064;-61
2023/07/02 08:20:25;;;;;;;11.63;2.95;;;;;;;;;;5035893;28;20057;-61
2023/07/02 08:22:57;;;;;;;9.13;2.80;;;;;;;;;;5025080;28;20331;-61
2023/07/02 08:25:26;;;;;;;13.20;3.38;;;;;;;;;;5039203;28;20036;-61
2023/07/02 08:27:54;;;;;;;15.93;2.87;;;;;;;;;;5035438;28;20044;-61
2023/07/02 08:30:23;;;;;;;11.30;3.15;;;;;;;;;;5012360;28;20048;-58
2023/07/02 08:32:54;;;;;;;9.95;2.22;;;;;;;;;;5030707;28;20782;-61
2023/07/02 08:35:22;;;;;;;10.93;2.20;;;;;;;;;;5031370;28;20037;-56
2023/07/02 08:37:50;;;;;;;10.40;2.10;;;;;;;;;;4667726;28;9999651;-61
2023/07/02 08:40:18;;;;;;;10.07;2.10;;;;;;;;;;5036010;28;20047;-61
2023/07/02 08:42:51;;;;;;;10.43;2.47;;;;;;;;;;5029628;28;20524;-61
2023/07/02 08:45:21;;;;;;;6.00;1.67;;;;;;;;;;5041711;28;20492;-56
2023/07/02 08:47:50;;;;;;;9.65;1.88;;;;;;;;;;5038326;28;20047;-62
2023/07/02 08:50:18;;;;;;;7.38;2.03;;;;;;;;;;5037699;28;20056;-62
2023/07/02 08:52:49;;;;;;;9.50;2.00;;;;;;;;;;5042238;28;20044;-61
2023/07/02 08:55:17;;;;;;;8.50;2.07;;;;;;;;;;5030422;28;20044;-61
2023/07/02 08:57:51;;;;;;;7.72;2.45;;;;;;;;;;5020015;28;20597;-62
2023/07/02 09:00:19;;;;;;;7.10;3.08;;;;;;;;;;5009856;28;20037;-62
2023/07/02 09:02:47;;;;;;;7.15;1.83;;;;;;;;;;5018727;28;20068;-62
2023/07/02 09:05:17;;;;;;;8.38;3.33;;;;;;;;;;5030949;28;20775;-62
2023/07/02 09:07:45;;;;;;;8.30;2.13;;;;;;;;;;5034125;28;20820;-61
2023/07/02 09:10:13;;;;;;;8.27;2.50;;;;;;;;;;5035195;28;20037;-61
2023/07/02 09:12:41;;;;;;;10.52;2.28;;;;;;;;;;5039463;28;20494;-61
2023/07/02 09:15:09;;;;;;;7.25;2.50;;;;;;;;;;5025196;28;20040;-61
2023/07/02 09:17:37;;;;;;;9.10;2.95;;;;;;;;;;5038657;28;20063;-61
2023/07/02 09:20:07;;;;;;;10.10;2.33;;;;;;;;;;5036342;28;20036;-62
2023/07/02 09:22:41;;;;;;;9.52;2.67;;;;;;;;;;5034914;28;20032;-62
2023/07/02 09:25:11;;;;;;;12.43;3.50;;;;;;;;;;5048429;28;20463;-61
2023/07/02 09:27:40;;;;;;;11.80;2.85;;;;;;;;;;5030699;28;20043;-62
2023/07/02 09:30:09;;;;;;;9.65;2.13;;;;;;;;;;5031730;28;20083;-62
2023/07/02 09:32:37;;;;;;;12.63;2.70;;;;;;;;;;5035702;28;20051;-60
2023/07/02 09:35:06;;;;;;;10.50;3.10;;;;;;;;;;5036686;28;20044;-60
2023/07/02 09:37:33;;;;;;;8.93;2.60;;;;;;;;;;5040566;28;20629;-60
2023/07/02 09:40:05;;;;;;;11.20;3.92;;;;;;;;;;5030914;28;20036;-60
2023/07/02 09:42:34;;;;;;;13.25;3.97;;;;;;;;;;5022207;28;20044;-61
2023/07/02 09:45:03;;;;;;;14.00;2.57;;;;;;;;;;5036054;28;20044;-60
2023/07/02 09:47:32;;;;;;;10.52;2.70;;;;;;;;;;5020985;28;20478;-60
2023/07/02 09:50:02;;;;;;;9.43;3.83;;;;;;;;;;5037343;28;20048;-59
2023/07/02 09:52:32;;;;;;;10.55;2.72;;;;;;;;;;5029827;28;20068;-60
2023/07/02 09:55:01;;;;;;;8.45;2.30;;;;;;;;;;5029928;28;20518;-61
2023/07/02 09:57:31;;;;;;;10.90;2.80;;;;;;;;;;5039490;28;20591;-61
2023/07/02 09:59:59;;;;;;;11.32;2.30;;;;;;;;;;5028535;28;20044;-61
2023/07/02 10:02:27;;;;;;;10.27;2.63;;;;;;;;;;5038166;28;20077;-61
2023/07/02 10:04:57;;;;;;;7.78;3.85;;;;;;;;;;5017233;28;20048;-61
2023/07/02 10:07:28;;;;;;;11.60;3.05;;;;;;;;;;5033445;28;20037;-61
2023/07/02 10:09:56;;;;;;;12.60;3.57;;;;;;;;;;5028899;28;20411;-61
2023/07/02 10:12:25;;;;;;;8.43;3.60;;;;;;;;;;5042666;28;20127;-61
2023/07/02 10:14:55;;;;;;;8.95;2.30;;;;;;;;;;5031744;28;20681;-61
2023/07/02 10:17:27;;;;;;;12.52;2.80;;;;;;;;;;5029292;28;20514;-61
2023/07/02 10:19:55;;;;;;;8.70;2.38;;;;;;;;;;5033912;28;20363;-61
2023/07/02 10:22:23;;;;;;;8.77;2.90;;;;;;;;;;5039753;28;20556;-61
2023/07/02 10:24:52;;;;;;;9.85;2.10;;;;;;;;;;5038778;28;20044;-61
2023/07/02 10:27:19;;;;;;;10.48;2.47;;;;;;;;;;5034859;28;20048;-60
2023/07/02 10:29:50;;;;;;;8.98;3.13;;;;;;;;;;5007903;28;20471;-61
2023/07/02 10:32:28;;;;;;;10.38;2.35;;;;;;;;;;5036318;28;20051;-61
2023/07/02 10:34:58;;;;;;;11.50;1.90;;;;;;;;;;5019466;28;20065;-61
2023/07/02 10:37:35;;;;;;;8.68;2.13;;;;;;;;;;4746776;28;10001314;-62
2023/07/02 10:40:05;;;;;;;7.85;2.50;;;;;;;;;;5023109;28;20243;-62
2023/07/02 10:42:45;;;;;;;12.75;2.13;;;;;;;;;;5023685;28;20426;-62
2023/07/02 10:45:13;;;;;;;10.70;2.28;;;;;;;;;;5031266;28;20044;-62
2023/07/02 10:47:45;;;;;;;6.53;2.00;;;;;;;;;;5027339;28;20932;-61
2023/07/02 10:50:17;;;;;;;9.73;1.98;;;;;;;;;;5038829;28;20470;-62
2023/07/02 10:52:45;;;;;;;10.55;2.53;;;;;;;;;;5035531;28;20145;-61
2023/07/02 10:55:17;;;;;;;8.52;1.80;;;;;;;;;;5026937;28;20048;-61
2023/07/02 10:57:44;;;;;;;7.85;1.73;;;;;;;;;;5027884;28;20056;-61
2023/07/02 11:00:12;;;;;;;11.43;2.77;;;;;;;;;;5013526;28;20800;-61
2023/07/02 11:02:41;;;;;;;12.88;2.33;;;;;;;;;;5047997;28;20044;-60
2023/07/02 11:05:12;;;;;;;11.35;2.67;;;;;;;;;;5015041;28;20033;-61
2023/07/02 11:07:40;;;;;;;9.00;3.08;;;;;;;;;;5039547;28;20049;-59
2023/07/02 11:10:08;;;;;;;7.75;2.35;;;;;;;;;;5034272;28;20260;-60
2023/07/02 11:12:36;;;;;;;9.17;2.03;;;;;;;;;;5026848;28;20136;-61
2023/07/02 11:15:10;;;;;;;10.15;2.50;;;;;;;;;;5029495;28;20043;-61
2023/07/02 11:17:40;;;;;;;11.90;2.85;;;;;;;;;;5039168;28;20123;-60
2023/07/02 11:20:10;;;;;;;9.30;2.40;;;;;;;;;;5019519;28;20483;-60
2023/07/02 11:22:40;;;;;;;8.65;2.63;;;;;;;;;;5032129;28;20509;-60
2023/07/02 11:25:12;;;;;;;9.97;2.80;;;;;;;;;;5036504;28;20047;-60
2023/07/02 11:27:40;;;;;;;12.07;3.15;;;;;;;;;;5021873;28;20047;-59
2023/07/02 11:30:08;;;;;;;8.77;2.35;;;;;;;;;;5034316;28;20123;-60
2023/07/02 11:32:48;;;;;;;11.23;2.95;;;;;;;;;;5030321;28;20565;-61
2023/07/02 11:35:18;;;;;;;12.40;2.97;;;;;;;;;;5036612;28;20054;-60
2023/07/02 11:37:45;;;;;;;10.67;2.80;;;;;;;;;;5031753;28;20038;-60
2023/07/02 11:40:14;;;;;;;12.45;2.53;;;;;;;;;;5040267;28;20041;-60
2023/07/02 11:42:41;;;;;;;10.25;3.90;;;;;;;;;;5028401;28;20040;-60
2023/07/02 11:45:12;;;;;;;10.38;3.38;;;;;;;;;;5033580;28;20048;-60
2023/07/02 11:47:41;;;;;;;7.05;2.28;;;;;;;;;;5030267;28;20075;-60
2023/07/02 11:50:09;;;;;;;10.80;3.10;;;;;;;;;;5024082;28;20041;-60
2023/07/02 11:52:54;;;;;;;10.68;2.97;;;;;;;;;;5035128;28;20055;-61
2023/07/02 11:55:23;;;;;;;10.25;3.45;;;;;;;;;;5030124;28;20118;-61
2023/07/02 11:57:50;;;;;;;9.05;3.13;;;;;;;;;;5044857;28;20048;-61
2023/07/02 12:00:18;;;;;;;13.43;4.40;;;;;;;;;;5022972;28;20037;-61
2023/07/02 12:02:46;;;;;;;9.03;2.83;;;;;;;;;;5027244;28;20043;-61
2023/07/02 12:05:14;;;;;;;8.35;3.10;;;;;;;;;;5018972;28;22055;-61
2023/07/02 12:07:41;;;;;;;12.77;3.30;;;;;;;;;;5013180;28;20033;-60
2023/07/02 12:10:11;;;;;;;10.23;3.17;;;;;;;;;;5023540;28;20397;-61
2023/07/02 12:12:39;;;;;;;12.55;2.83;;;;;;;;;;5030174;28;20048;-62
2023/07/02 12:15:07;;;;;;;8.40;2.90;;;;;;;;;;5019598;28;20059;-61
2023/07/02 12:17:34;;;;;;;10.10;2.92;;;;;;;;;;5029594;28;20102;-61
2023/07/02 12:20:03;;;;;;;9.65;2.80;;;;;;;;;;5020013;28;20053;-61
2023/07/02 12:22:30;;;;;;;13.98;2.67;;;;;;;;;;4683220;28;10000604;-61
2023/07/02 12:24:58;;;;;;;11.33;2.60;;;;;;;;;;5022566;28;20224;-62
2023/07/02 12:27:29;;;;;;;10.27;2.35;;;;;;;;;;5027313;28;20043;-61
2023/07/02 12:29:57;;;;;;;10.23;2.35;;;;;;;;;;5021504;28;20049;-60
2023/07/02 12:32:25;;;;;;;10.90;1.98;;;;;;;;;;5015266;28;20052;-61
2023/07/02 12:34:53;;;;;;;12.25;3.17;;;;;;;;;;5031328;28;20052;-61
2023/07/02 12:37:21;;;;;;;11.43;3.10;;;;;;;;;;5020052;28;20036;-60
2023/07/02 12:39:49;;;;;;;13.18;2.80;;;;;;;;;;5029163;28;20041;-61
2023/07/02 12:42:17;;;;;;;10.98;2.40;;;;;;;;;;5032873;28;20055;-60
2023/07/02 12:44:46;;;;;;;9.90;2.30;;;;;;;;;;5040033;28;20549;-61
2023/07/02 12:47:15;;;;;;;8.80;2.22;;;;;;;;;;5025250;28;20510;-61
2023/07/02 12:49:43;;;;;;;17.80;2.80;;;;;;;;;;5031147;28;20068;-60
2023/07/02 12:52:11;;;;;;;10.93;2.28;;;;;;;;;;5023946;28;20044;-61
2023/07/02 12:54:38;;;;;;;11.48;3.03;;;;;;;;;;5031178;28;20487;-60
2023/07/02 12:57:06;;;;;;;9.60;2.60;;;;;;;;;;5023172;28;20036;-61
2023/07/02 12:59:34;;;;;;;10.60;2.63;;;;;;;;;;5017732;28;20402;-60
2023/07/02 13:02:04;;;;;;;9.93;2.57;;;;;;;;;;5024725;28;20060;-61
2023/07/02 13:04:31;;;;;;;12.05;2.80;;;;;;;;;;5038641;28;20044;-60
2023/07/02 13:06:59;;;;;;;16.23;2.92;;;;;;;;;;5019489;28;20159;-59
2023/07/02 13:09:27;;;;;;;10.88;3.55;;;;;;;;;;5024894;28;20054;-60
2023/07/02 13:11:55;;;;;;;10.52;3.03;;;;;;;;;;5025746;28;20495;-60
2023/07/02 13:14:22;;;;;;;11.13;3.30;;;;;;;;;;5038188;28;20053;-61
2023/07/02 13:16:50;;;;;;;12.05;2.55;;;;;;;;;;5027906;28;20163;-61
2023/07/02 13:19:20;;;;;;;9.48;2.50;;;;;;;;;;5032468;28;20124;-61
2023/07/02 13:21:47;;;;;;;8.07;1.98;;;;;;;;;;5021830;28;20056;-61
2023/07/02 13:24:17;;;;;;;9.80;2.42;;;;;;;;;;5023727;28;20040;-61
2023/07/02 13:26:44;;;;;;;8.97;2.20;;;;;;;;;;5033573;28;20044;-62
2023/07/02 13:29:12;;;;;;;9.25;2.70;;;;;;;;;;5017766;28;20422;-62
2023/07/02 13:31:40;;;;;;;10.02;3.40;;;;;;;;;;5031041;28;20718;-61
2023/07/02 13:34:08;;;;;;;8.40;2.17;;;;;;;;;;5029504;28;20048;-61
2023/07/02 13:36:37;;;;;;;9.75;2.40;;;;;;;;;;5017539;28;20375;-61
2023/07/02 13:39:06;;;;;;;8.07;2.53;;;;;;;;;;5026547;28;20468;-61
2023/07/02 13:41:34;;;;;;;9.80;2.63;;;;;;;;;;5031379;28;20041;-60
2023/07/02 13:44:02;;;;;;;10.02;2.13;;;;;;;;;;5015941;28;20033;-60
2023/07/02 13:46:30;;;;;;;9.00;2.65;;;;;;;;;;5030943;28;20040;-61
2023/07/02 13:48:58;;;;;;;11.32;2.30;;;;;;;;;;5031435;28;20538;-61
2023/07/02 13:51:27;;;;;;;7.37;1.97;;;;;;;;;;5029465;28;20043;-61
2023/07/02 13:53:56;;;;;;;10.82;2.53;;;;;;;;;;5026465;28;20152;-61
2023/07/02 13:56:24;;;;;;;9.95;2.17;;;;;;;;;;5039825;28;20429;-61
2023/07/02 13:59:05;;;;;;;12.65;2.40;;;;;;;;;;5008987;28;20553;-61
2023/07/02 14:01:33;;;;;;;11.25;2.75;;;;;;;;;;5009035;28;20086;-61
2023/07/02 14:04:01;;;;;;;13.57;2.40;;;;;;;;;;5025282;28;20206;-61
2023/07/02 14:06:31;;;;;;;12.18;2.47;;;;;;;;;;5017160;28;20041;-60
2023/07/02 14:08:59;;;;;;;10.02;2.33;;;;;;;;;;5035921;28;20068;-61
2023/07/02 14:11:27;;;;;;;10.52;1.60;;;;;;;;;;5031541;28;20033;-61
2023/07/02 14:13:55;;;;;;;11.68;2.47;;;;;;;;;;5022018;28;20518;-60
2023/07/02 14:16:24;;;;;;;11.20;2.50;;;;;;;;;;5028031;28;20136;-60
2023/07/02 14:18:52;;;;;;;10.23;3.13;;;;;;;;;;5027908;28;20541;-60
2023/07/02 14:21:20;;;;;;;10.23;1.75;;;;;;;;;;5037741;28;20631;-60
2023/07/02 14:23:48;;;;;;;10.82;2.20;;;;;;;;;;5024210;28;20037;-60
2023/07/02 14:26:16;;;;;;;7.78;2.13;;;;;;;;;;5030066;28;20533;-62
2023/07/02 14:28:44;;;;;;;10.30;1.87;;;;;;;;;;5027014;28;20047;-61
2023/07/02 14:31:12;;;;;;;10.80;1.95;;;;;;;;;;5008845;28;20040;-61
2023/07/02 14:33:41;;;;;;;10.18;2.78;;;;;;;;;;5015366;28;20052;-60
2023/07/02 14:36:09;;;;;;;10.32;1.67;;;;;;;;;;5033227;28;20037;-62
2023/07/02 14:38:37;;;;;;;11.80;2.60;;;;;;;;;;5027002;28;20029;-61